Time;durP1;ratioP1;P1;durP2;ratioP2;P2;SDS_P1;SDS_P2;PMS_P1;PMS_P2;Temp;Humidity;BMP_temperature;BMP_pressure;BME280_temperature;BME280_humidity;BME280_pressure;Samples;Min_cycle;Max_cycle;Signal;HPM_P1;HPM_P2
2024/01/29 00:01:08;;;;;;;19.58;10.38;;;2.50;65.50;;;-2.67;100.00;96827.25;4948652;28;20023;-55
2024/01/29 00:03:33;;;;;;;23.17;11.82;;;2.50;65.70;;;-2.69;100.00;96824.81;4952303;28;20027;-54
2024/01/29 00:05:59;;;;;;;20.00;11.10;;;2.50;65.60;;;-2.70;100.00;96827.56;4950563;28;20564;-57
2024/01/29 00:08:25;;;;;;;22.38;11.77;;;2.50;65.60;;;-2.72;100.00;96826.91;4952028;28;20405;-55
2024/01/29 00:10:51;;;;;;;20.77;11.35;;;2.50;65.70;;;-2.74;100.00;96824.44;4950943;28;20030;-53
2024/01/29 00:13:17;;;;;;;26.23;11.85;;;2.50;65.70;;;-2.75;100.00;96822.00;4951733;28;20037;-52
2024/01/29 00:15:43;;;;;;;21.50;11.13;;;2.50;65.70;;;-2.77;100.00;96827.34;4966019;28;20118;-55
2024/01/29 00:18:09;;;;;;;24.58;11.88;;;2.40;65.70;;;-2.78;100.00;96817.91;4951161;28;20092;-55
2024/01/29 00:20:34;;;;;;;25.77;12.45;;;2.40;65.70;;;-2.77;100.00;96822.13;4949548;28;20030;-51
2024/01/29 00:23:00;;;;;;;34.60;14.57;;;2.40;65.70;;;-2.80;100.00;96822.44;4951126;28;20375;-53
2024/01/29 00:25:26;;;;;;;35.25;13.15;;;2.40;65.80;;;-2.80;100.00;96818.03;4951196;28;20030;-53
2024/01/29 00:27:52;;;;;;;27.25;12.55;;;2.40;65.80;;;-2.80;100.00;96827.66;4951824;28;20121;-51
2024/01/29 00:30:19;;;;;;;28.38;13.68;;;2.40;65.80;;;-2.82;100.00;96820.00;4951054;28;20489;-53
2024/01/29 00:32:45;;;;;;;24.17;11.43;;;2.40;65.80;;;-2.81;100.00;96819.00;4951912;28;20044;-55
2024/01/29 00:35:11;;;;;;;20.45;11.77;;;2.40;65.80;;;-2.81;100.00;96823.41;4950238;28;20081;-55
2024/01/29 00:37:37;;;;;;;17.95;10.35;;;2.40;65.90;;;-2.83;100.00;96825.34;4951374;28;20097;-52
2024/01/29 00:40:04;;;;;;;17.48;9.85;;;2.40;65.90;;;-2.82;100.00;96820.00;4948440;28;20113;-53
2024/01/29 00:42:31;;;;;;;17.73;9.95;;;2.40;65.90;;;-2.81;100.00;96816.41;4950317;28;20066;-53
2024/01/29 00:44:57;;;;;;;19.58;10.50;;;2.40;65.90;;;-2.82;100.00;96820.00;4951164;28;20031;-54
2024/01/29 00:47:22;;;;;;;19.30;10.68;;;2.40;66.00;;;-2.82;100.00;96817.38;4950791;28;20037;-52
2024/01/29 00:49:48;;;;;;;25.60;12.60;;;2.40;66.00;;;-2.83;100.00;96817.50;4951644;28;20022;-51
2024/01/29 00:52:14;;;;;;;30.13;12.98;;;2.40;66.00;;;-2.84;100.00;96818.50;4951439;28;20038;-54
2024/01/29 00:54:40;;;;;;;25.98;11.68;;;2.30;65.90;;;-2.86;100.00;96815.22;4950083;28;20031;-56
2024/01/29 00:57:06;;;;;;;26.75;11.85;;;2.30;66.00;;;-2.87;100.00;96819.59;4951360;28;20111;-54
2024/01/29 00:59:32;;;;;;;23.95;11.13;;;2.30;66.10;;;-2.88;100.00;96815.38;4950459;28;20065;-53
2024/01/29 01:01:58;;;;;;;19.50;9.85;;;2.30;66.00;;;-2.89;100.00;96816.31;4951477;28;20839;-52
2024/01/29 01:04:24;;;;;;;21.02;10.70;;;2.30;66.00;;;-2.90;100.00;96812.09;4950908;28;20030;-51
2024/01/29 01:06:50;;;;;;;20.30;10.10;;;2.30;66.00;;;-2.94;100.00;96813.38;4950559;28;20029;-52
2024/01/29 01:09:16;;;;;;;19.52;9.73;;;2.30;66.00;;;-2.92;100.00;96815.81;4950889;28;20073;-51
2024/01/29 01:11:42;;;;;;;19.77;9.90;;;2.30;66.00;;;-2.93;100.00;96822.00;4950330;28;20030;-51
2024/01/29 01:14:08;;;;;;;26.85;11.35;;;2.20;66.00;;;-2.96;100.00;96825.72;4950783;28;20027;-51
2024/01/29 01:16:34;;;;;;;22.77;11.57;;;2.30;66.10;;;-2.95;100.00;96834.34;4950520;28;20022;-53
2024/01/29 01:19:00;;;;;;;23.60;11.32;;;2.20;66.00;;;-2.94;100.00;96836.84;4950356;28;20058;-51
2024/01/29 01:21:26;;;;;;;20.17;10.48;;;2.20;66.10;;;-2.92;100.00;96834.88;4950878;28;20034;-55
2024/01/29 01:23:51;;;;;;;18.65;10.85;;;2.30;66.20;;;-2.93;100.00;96828.03;4964326;28;20057;-55
2024/01/29 01:26:17;;;;;;;21.08;10.98;;;2.30;66.20;;;-2.93;100.00;96830.63;4949299;28;20023;-54
2024/01/29 01:28:43;;;;;;;24.10;11.27;;;2.20;66.20;;;-2.92;100.00;96829.66;4950384;28;20097;-54
2024/01/29 01:31:10;;;;;;;29.13;12.88;;;2.30;66.30;;;-2.96;100.00;96830.94;4951149;28;20034;-55
2024/01/29 01:33:36;;;;;;;26.33;13.20;;;2.20;66.10;;;-2.97;100.00;96839.75;4951016;28;20058;-52
2024/01/29 01:36:02;;;;;;;31.80;13.52;;;2.20;66.10;;;-2.99;100.00;96835.63;4949473;28;20174;-53
2024/01/29 01:38:28;;;;;;;33.97;13.57;;;2.20;66.10;;;-3.01;100.00;96827.94;4950589;28;20034;-56
2024/01/29 01:40:53;;;;;;;23.33;10.90;;;2.20;66.10;;;-3.03;100.00;96837.72;4949967;28;20038;-53
2024/01/29 01:43:23;;;;;;;21.73;10.73;;;2.20;66.10;;;-3.05;100.00;96837.03;4950298;28;20040;-54
2024/01/29 01:46:25;;;;;;;22.60;10.25;;;2.20;66.20;;;-3.07;100.00;96836.38;4950612;29;20397;-54
2024/01/29 01:48:54;;;;;;;20.38;10.50;;;2.20;66.20;;;-3.10;100.00;96837.50;4946427;28;20054;-56
2024/01/29 01:51:23;;;;;;;22.83;9.90;;;2.20;66.10;;;-3.11;100.00;96830.63;4954572;28;20030;-53
2024/01/29 01:53:57;;;;;;;21.15;9.63;;;2.10;66.10;;;-3.12;100.00;96825.59;4954076;28;20122;-53
2024/01/29 01:56:24;;;;;;;24.02;11.77;;;2.10;66.20;;;-3.10;100.00;96823.66;4953172;28;20061;-52
2024/01/29 01:58:54;;;;;;;25.15;12.30;;;2.10;66.30;;;-3.11;100.00;96822.81;4951728;28;20031;-55
2024/01/29 02:01:22;;;;;;;27.97;12.50;;;2.10;66.40;;;-3.10;100.00;96821.88;4953174;28;20410;-55
2024/01/29 02:03:48;;;;;;;27.00;12.57;;;2.10;66.40;;;-3.10;100.00;96827.06;4954497;28;20768;-53
2024/01/29 02:06:14;;;;;;;24.30;12.05;;;2.00;66.40;;;-3.09;100.00;96827.91;4952938;28;20040;-56
2024/01/29 02:08:41;;;;;;;26.17;11.15;;;2.10;66.50;;;-3.10;100.00;96829.69;4954229;28;20516;-57
2024/01/29 02:11:07;;;;;;;22.50;10.55;;;2.10;66.40;;;-3.12;100.00;96836.00;4953550;28;20052;-52
2024/01/29 02:13:33;;;;;;;21.08;10.43;;;2.10;66.40;;;-3.13;100.00;96832.59;4954022;28;20093;-52
2024/01/29 02:16:02;;;;;;;22.80;10.57;;;2.10;66.40;;;-3.15;100.00;96826.69;4953775;28;20122;-52
2024/01/29 02:18:29;;;;;;;20.52;10.70;;;2.10;66.40;;;-3.16;100.00;96830.28;4949322;28;20424;-52
2024/01/29 02:20:56;;;;;;;19.48;10.43;;;2.10;66.40;;;-3.17;100.00;96833.00;4954061;28;20031;-54
2024/01/29 02:23:22;;;;;;;22.92;10.98;;;2.10;66.40;;;-3.19;100.00;96835.78;4951471;28;20089;-51
2024/01/29 02:25:48;;;;;;;23.75;10.40;;;2.00;66.30;;;-3.22;100.00;96833.47;4954106;28;20043;-55
2024/01/29 02:28:13;;;;;;;20.42;10.57;;;2.00;66.40;;;-3.24;100.00;96838.00;4953807;28;20118;-53
2024/01/29 02:30:40;;;;;;;18.98;10.27;;;2.00;66.40;;;-3.27;100.00;96833.91;4953036;28;20050;-57
2024/01/29 02:33:06;;;;;;;17.65;10.40;;;2.00;66.40;;;-3.28;100.00;96834.88;4953727;28;20085;-51
2024/01/29 02:35:31;;;;;;;17.67;9.45;;;2.00;66.40;;;-3.27;100.00;96840.91;4952234;28;20054;-51
2024/01/29 02:37:57;;;;;;;17.98;9.75;;;2.00;66.40;;;-3.29;100.00;96832.41;4953442;28;20034;-52
2024/01/29 02:40:23;;;;;;;17.05;9.73;;;2.00;66.40;;;-3.29;100.00;96838.47;4953867;28;20449;-54
2024/01/29 02:42:49;;;;;;;18.52;9.88;;;2.00;66.40;;;-3.29;100.00;96835.00;4952454;28;20548;-51
2024/01/29 02:45:15;;;;;;;20.98;9.85;;;2.00;66.40;;;-3.30;100.00;96828.16;4952975;28;20018;-51
2024/01/29 02:47:41;;;;;;;20.88;9.95;;;2.00;66.40;;;-3.29;100.00;96827.19;4952476;28;20038;-52
2024/01/29 02:50:08;;;;;;;19.00;10.25;;;2.00;66.50;;;-3.30;100.00;96826.38;4953736;28;20477;-54
2024/01/29 02:52:34;;;;;;;22.25;10.70;;;1.90;66.30;;;-3.31;100.00;96829.97;4953087;28;20045;-54
2024/01/29 02:55:00;;;;;;;18.42;10.07;;;1.90;66.40;;;-3.33;100.00;96825.84;4952166;28;20027;-51
2024/01/29 02:57:26;;;;;;;21.38;10.68;;;1.90;66.40;;;-3.35;100.00;96826.03;4953206;28;20031;-54
2024/01/29 02:59:53;;;;;;;24.10;10.63;;;1.90;66.40;;;-3.37;100.00;96817.50;4952153;28;20053;-52
2024/01/29 03:02:19;;;;;;;23.48;11.00;;;1.90;66.40;;;-3.38;100.00;96822.88;4953346;28;20039;-51
2024/01/29 03:04:45;;;;;;;21.30;10.55;;;1.90;66.50;;;-3.37;100.00;96821.91;4952050;28;20027;-56
2024/01/29 03:07:11;;;;;;;26.17;11.18;;;1.90;66.50;;;-3.39;100.00;96822.03;4951333;28;20477;-50
2024/01/29 03:09:37;;;;;;;22.80;11.32;;;1.90;66.50;;;-3.40;100.00;96819.59;4953102;28;20023;-55
2024/01/29 03:12:04;;;;;;;20.35;10.82;;;1.80;66.50;;;-3.43;100.00;96820.72;4951967;28;20026;-52
2024/01/29 03:14:30;;;;;;;23.30;10.40;;;1.80;66.50;;;-3.43;100.00;96828.53;4952268;28;20045;-54
2024/01/29 03:16:56;;;;;;;20.42;10.15;;;1.80;66.50;;;-3.45;100.00;96825.25;4951718;28;20054;-50
2024/01/29 03:19:22;;;;;;;21.58;9.98;;;1.80;66.50;;;-3.46;100.00;96822.78;4951987;28;20613;-52
2024/01/29 03:21:48;;;;;;;19.02;9.23;;;1.80;66.50;;;-3.49;100.00;96824.72;4952394;28;20018;-56
2024/01/29 03:24:15;;;;;;;19.60;10.23;;;1.80;66.40;;;-3.51;100.00;96829.28;4951512;28;20033;-52
2024/01/29 03:26:41;;;;;;;20.88;10.10;;;1.80;66.50;;;-3.56;100.00;96822.84;4952335;28;20030;-50
2024/01/29 03:29:07;;;;;;;16.23;8.77;;;1.80;66.40;;;-3.57;100.00;96827.25;4952109;28;20035;-52
2024/01/29 03:31:33;;;;;;;18.75;9.85;;;1.70;66.40;;;-3.60;100.00;96827.53;4952183;28;20029;-50
2024/01/29 03:33:59;;;;;;;17.83;9.00;;;1.70;66.40;;;-3.62;100.00;96826.03;4952572;28;20037;-50
2024/01/29 03:36:25;;;;;;;14.50;8.35;;;1.70;66.40;;;-3.63;100.00;96833.03;4950205;28;20042;-50
2024/01/29 03:38:50;;;;;;;16.83;8.65;;;1.70;66.40;;;-3.62;100.00;96834.66;4952576;28;20027;-52
2024/01/29 03:41:17;;;;;;;16.63;9.40;;;1.70;66.50;;;-3.64;100.00;96838.38;4965668;28;20026;-51
2024/01/29 03:43:43;;;;;;;21.20;10.02;;;1.60;66.40;;;-3.66;100.00;96835.13;4949398;28;20478;-50
2024/01/29 03:46:09;;;;;;;16.83;9.57;;;1.60;66.50;;;-3.65;100.00;96831.53;4951271;28;20068;-50
2024/01/29 03:48:35;;;;;;;19.45;9.73;;;1.60;66.50;;;-3.65;100.00;96824.53;4951117;28;20018;-50
2024/01/29 03:51:00;;;;;;;22.83;10.20;;;1.60;66.50;;;-3.66;100.00;96829.91;4952014;28;20057;-50
2024/01/29 03:53:26;;;;;;;27.52;10.70;;;1.60;66.60;;;-3.68;100.00;96835.25;4951131;28;20425;-52
2024/01/29 03:55:52;;;;;;;21.05;10.20;;;1.60;66.60;;;-3.70;100.00;96825.94;4951420;28;20493;-51
2024/01/29 03:58:20;;;;;;;17.25;9.18;;;1.60;66.50;;;-3.72;100.00;96826.09;4951931;28;20413;-50
2024/01/29 04:00:46;;;;;;;20.30;10.05;;;1.60;67.10;;;-3.75;100.00;96824.59;4951133;28;20030;-53
2024/01/29 04:03:12;;;;;;;18.48;9.73;;;1.60;66.60;;;-3.76;100.00;96819.50;4951993;28;20034;-55
2024/01/29 04:05:38;;;;;;;18.42;9.40;;;1.50;66.60;;;-3.76;100.00;96829.94;4950059;28;20076;-53
2024/01/29 04:08:05;;;;;;;18.85;10.30;;;1.60;66.60;;;-3.76;100.00;96822.97;4951873;28;20027;-50
2024/01/29 04:10:31;;;;;;;17.88;9.65;;;1.50;66.60;;;-3.71;100.00;96825.13;4951975;28;20031;-52
2024/01/29 04:12:56;;;;;;;18.30;9.85;;;1.50;66.70;;;-3.69;100.00;96819.78;4947203;28;20097;-55
2024/01/29 04:15:22;;;;;;;17.77;9.60;;;1.50;66.70;;;-3.73;100.00;96820.06;4951860;28;20031;-50
2024/01/29 04:17:48;;;;;;;18.05;9.25;;;1.50;66.70;;;-3.69;100.00;96819.78;4957841;28;20384;-52
2024/01/29 04:20:14;;;;;;;20.88;9.57;;;1.60;66.70;;;-3.68;100.00;96818.81;4954710;28;20121;-51
2024/01/29 04:22:40;;;;;;;19.23;9.68;;;1.50;66.70;;;-3.67;100.00;96820.44;4953517;28;20026;-52
2024/01/29 04:25:07;;;;;;;20.48;10.40;;;1.50;66.60;;;-3.67;100.00;96821.25;4955167;28;20110;-52
2024/01/29 04:27:33;;;;;;;23.05;9.95;;;1.50;66.70;;;-3.70;100.00;96811.13;4956367;28;20034;-51
2024/01/29 04:30:01;;;;;;;26.27;10.68;;;1.50;66.60;;;-3.71;100.00;96819.91;4951887;28;20093;-49
2024/01/29 04:32:27;;;;;;;22.48;10.40;;;1.50;66.70;;;-3.75;100.00;96814.19;4954856;28;20027;-49
2024/01/29 04:34:53;;;;;;;22.77;11.48;;;1.50;66.60;;;-3.78;100.00;96822.28;4953855;28;20118;-51
2024/01/29 04:37:19;;;;;;;20.48;10.10;;;1.50;66.70;;;-3.79;100.00;96817.19;4960385;23;20043;-55
2024/01/29 04:39:45;;;;;;;20.90;10.23;;;1.50;66.70;;;-3.79;100.00;96818.03;4947589;28;20038;-56
2024/01/29 04:42:12;;;;;;;19.67;10.07;;;1.50;66.70;;;-3.80;100.00;96819.00;4943277;28;20625;-57
2024/01/29 04:44:37;;;;;;;18.23;9.70;;;1.50;66.60;;;-3.84;100.00;96816.84;4956565;28;20048;-55
2024/01/29 04:47:04;;;;;;;21.45;11.20;;;1.50;66.60;;;-3.84;100.00;96816.84;4930333;28;20433;-55
2024/01/29 04:49:30;;;;;;;19.85;9.85;;;1.50;66.60;;;-3.85;100.00;96815.19;4931587;28;20549;-56
2024/01/29 04:51:56;;;;;;;17.40;10.05;;;1.50;66.70;;;-3.86;100.00;96813.53;4930312;28;20065;-53
2024/01/29 04:54:21;;;;;;;17.77;10.05;;;1.40;66.60;;;-3.87;100.00;96825.75;4932770;28;20039;-52
2024/01/29 04:56:47;;;;;;;16.02;9.32;;;1.40;66.60;;;-3.91;100.00;96815.78;4930147;28;20513;-55
2024/01/29 04:59:14;;;;;;;17.05;9.43;;;1.40;66.60;;;-3.93;100.00;96817.69;4928621;28;20054;-54
2024/01/29 05:01:40;;;;;;;20.52;9.30;;;1.40;66.60;;;-3.94;100.00;96816.88;4937243;28;20084;-54
2024/01/29 05:04:06;;;;;;;15.35;9.00;;;1.40;66.60;;;-3.96;100.00;96813.59;4925141;28;20111;-55
2024/01/29 05:06:31;;;;;;;15.73;9.32;;;1.40;66.50;;;-3.99;100.00;96814.69;4931457;28;20035;-58
2024/01/29 05:08:57;;;;;;;16.30;9.25;;;1.40;66.60;;;-4.01;100.00;96811.44;4921678;29;20038;-58
2024/01/29 05:11:23;;;;;;;19.33;10.05;;;1.40;66.60;;;-4.02;100.00;96824.56;4931235;28;20478;-55
2024/01/29 05:13:49;;;;;;;22.17;10.57;;;1.30;66.50;;;-4.02;100.00;96821.97;4928750;28;20054;-56
2024/01/29 05:16:15;;;;;;;21.23;10.90;;;1.30;66.50;;;-4.03;100.00;96822.94;4933379;28;20050;-57
2024/01/29 05:18:42;;;;;;;38.45;10.25;;;1.30;66.60;;;-4.07;100.00;96817.22;4919800;29;20044;-58
2024/01/29 05:21:08;;;;;;;15.05;8.75;;;1.30;66.60;;;-4.07;100.00;96819.81;4942522;28;20034;-58
2024/01/29 05:23:34;;;;;;;15.93;8.18;;;1.30;66.70;;;-4.06;100.00;96815.41;4927336;29;20046;-58
2024/01/29 05:26:00;;;;;;;14.98;8.68;;;1.30;66.70;;;-4.07;100.00;96812.00;4929209;29;20454;-56
2024/01/29 05:28:26;;;;;;;18.38;8.95;;;1.30;66.70;;;-4.07;100.00;96816.41;4923502;29;20031;-55
2024/01/29 05:30:52;;;;;;;17.77;10.05;;;1.30;66.70;;;-4.06;100.00;96818.03;4928493;29;20078;-57
2024/01/29 05:33:18;;;;;;;16.45;9.30;;;1.30;66.60;;;-4.07;100.00;96811.19;4920492;29;20413;-54
2024/01/29 05:35:44;;;;;;;20.60;10.23;;;1.30;66.60;;;-4.09;100.00;96813.91;4927775;29;20039;-57
2024/01/29 05:38:10;;;;;;;23.65;12.13;;;1.30;66.60;;;-4.11;100.00;96810.63;4926919;29;20083;-57
2024/01/29 05:40:36;;;;;;;27.42;12.35;;;1.30;66.70;;;-4.09;100.00;96811.31;4930746;29;20027;-58
2024/01/29 05:43:02;;;;;;;21.00;11.50;;;1.30;66.70;;;-4.09;100.00;96803.50;4931801;29;20027;-51
2024/01/29 05:45:28;;;;;;;18.58;9.77;;;1.30;66.70;;;-4.07;100.00;96817.22;4917934;29;20435;-55
2024/01/29 05:47:54;;;;;;;23.02;11.30;;;1.30;66.80;;;-4.09;100.00;96813.91;4922309;29;20134;-55
2024/01/29 05:50:20;;;;;;;23.40;11.52;;;1.30;66.80;;;-4.07;100.00;96816.41;4924744;29;20375;-51
2024/01/29 05:52:46;;;;;;;21.77;11.25;;;1.20;66.70;;;-4.05;100.00;96809.25;4921064;29;20038;-54
2024/01/29 05:55:12;;;;;;;21.30;10.90;;;1.30;66.80;;;-4.05;100.00;96814.44;4925539;29;20077;-51
2024/01/29 05:57:38;;;;;;;26.25;10.88;;;1.30;66.80;;;-4.02;100.00;96819.38;4919765;29;20067;-53
2024/01/29 06:00:10;;;;;;;18.58;9.88;;;1.30;67.60;;;-3.98;100.00;96816.34;4925565;29;20050;-53
2024/01/29 06:02:42;;;;;;;19.10;10.27;;;1.20;66.70;;;-3.96;100.00;96818.78;4926102;29;20030;-56
2024/01/29 06:05:12;;;;;;;22.30;10.23;;;1.30;66.80;;;-3.97;100.00;96809.34;4924123;29;20027;-53
2024/01/29 06:07:41;;;;;;;22.17;10.32;;;1.20;66.70;;;-4.00;100.00;96815.66;4923786;29;20169;-54
2024/01/29 06:10:12;;;;;;;23.27;11.45;;;1.30;66.80;;;-4.03;100.00;96810.75;4929430;29;20027;-52
2024/01/29 06:12:38;;;;;;;32.08;16.00;;;1.30;66.70;;;-4.02;100.00;96814.97;4928659;29;20490;-52
2024/01/29 06:15:05;;;;;;;20.10;11.45;;;1.30;66.70;;;-4.00;100.00;96818.28;4923992;29;20390;-54
2024/01/29 06:17:32;;;;;;;23.85;12.45;;;1.30;66.80;;;-4.00;100.00;96815.66;4926531;29;20039;-56
2024/01/29 06:19:58;;;;;;;25.50;11.65;;;1.30;66.80;;;-4.00;100.00;96812.25;4917855;29;20498;-55
2024/01/29 06:22:23;;;;;;;21.25;11.20;;;1.30;66.80;;;-4.01;100.00;96811.44;4924303;29;20067;-53
2024/01/29 06:24:49;;;;;;;21.45;11.60;;;1.30;66.80;;;-4.02;100.00;96814.97;4924718;29;20359;-53
2024/01/29 06:27:15;;;;;;;25.90;11.85;;;1.30;66.70;;;-4.00;100.00;96817.44;4919148;29;20023;-54
2024/01/29 06:29:41;;;;;;;22.38;11.80;;;1.30;66.80;;;-3.99;100.00;96814.69;4919738;29;20539;-53
2024/01/29 06:32:07;;;;;;;22.33;11.93;;;1.30;66.80;;;-4.02;100.00;96817.59;4918420;29;20395;-54
2024/01/29 06:34:35;;;;;;;26.70;12.40;;;1.30;66.80;;;-4.05;100.00;96817.88;4927214;29;20031;-55
2024/01/29 06:37:01;;;;;;;23.42;12.52;;;1.30;66.80;;;-4.05;100.00;96817.88;4930424;29;20457;-53
2024/01/29 06:39:27;;;;;;;32.63;12.27;;;1.30;66.70;;;-4.06;100.00;96821.44;4933204;29;20114;-56
2024/01/29 06:41:53;;;;;;;24.33;12.85;;;1.30;66.70;;;-4.03;100.00;96822.94;4926801;29;20031;-55
2024/01/29 06:44:18;;;;;;;23.75;11.73;;;1.30;66.80;;;-4.01;100.00;96819.25;4931645;28;20079;-52
2024/01/29 06:46:44;;;;;;;26.67;11.95;;;1.30;66.80;;;-3.98;100.00;96815.50;4932917;29;20450;-54
2024/01/29 06:49:30;;;;;;;20.95;12.30;;;1.30;66.90;;;-3.96;100.00;96816.19;4926239;29;20039;-55
2024/01/29 06:51:57;;;;;;;27.08;12.68;;;1.30;67.00;;;-3.93;100.00;96817.69;4930750;29;20457;-54
2024/01/29 06:54:24;;;;;;;28.25;12.38;;;1.30;66.90;;;-3.91;100.00;96819.19;4930687;29;20508;-55
2024/01/29 06:56:53;;;;;;;20.92;10.98;;;1.40;66.90;;;-3.89;100.00;96824.25;4926562;29;20063;-56
2024/01/29 06:59:19;;;;;;;19.70;10.43;;;1.40;67.00;;;-3.84;100.00;96819.44;4930577;29;20068;-58
2024/01/29 07:01:45;;;;;;;21.92;11.77;;;1.40;67.00;;;-3.81;100.00;96832.16;4925567;29;20035;-58
2024/01/29 07:04:11;;;;;;;20.17;10.20;;;1.50;67.00;;;-3.79;100.00;96825.84;4928861;29;20035;-57
2024/01/29 07:06:37;;;;;;;22.10;9.65;;;1.50;66.90;;;-3.79;100.00;96819.81;4930489;29;20031;-56
2024/01/29 07:09:03;;;;;;;22.60;10.63;;;1.50;67.20;;;-3.79;100.00;96823.25;4933891;29;20418;-57
2024/01/29 07:11:29;;;;;;;18.92;10.50;;;1.60;66.90;;;-3.80;100.00;96832.00;4925896;29;20023;-59
2024/01/29 07:13:55;;;;;;;23.17;11.90;;;1.60;66.90;;;-3.81;100.00;96832.97;4927870;29;20031;-55
2024/01/29 07:16:21;;;;;;;19.60;10.90;;;1.60;66.80;;;-3.80;100.00;96833.78;4923903;29;20019;-54
2024/01/29 07:18:47;;;;;;;19.38;10.27;;;1.60;66.80;;;-3.78;100.00;96834.47;4923253;29;20036;-56
2024/01/29 07:21:13;;;;;;;22.95;10.85;;;1.60;66.70;;;-3.79;100.00;96843.25;4927264;29;20032;-55
2024/01/29 07:23:38;;;;;;;19.83;10.50;;;1.60;66.70;;;-3.78;100.00;96837.09;4923988;29;20027;-59
2024/01/29 07:26:04;;;;;;;18.77;10.63;;;1.70;66.70;;;-3.78;100.00;96839.69;4926196;29;20023;-59
2024/01/29 07:28:31;;;;;;;21.40;10.60;;;1.70;66.70;;;-3.78;100.00;96844.91;4920203;29;20035;-59
2024/01/29 07:30:57;;;;;;;24.25;11.93;;;1.70;66.70;;;-3.76;100.00;96837.75;4922823;29;20127;-59
2024/01/29 07:33:23;;;;;;;23.85;11.45;;;1.70;66.70;;;-3.72;100.00;96847.75;4922936;29;20557;-59
2024/01/29 07:35:49;;;;;;;20.92;11.25;;;1.70;66.70;;;-3.71;100.00;96848.56;4924227;29;20631;-58
2024/01/29 07:38:15;;;;;;;21.77;11.30;;;1.80;66.80;;;-3.72;100.00;96850.34;4924338;29;20039;-58
2024/01/29 07:40:41;;;;;;;18.08;10.57;;;1.80;66.70;;;-3.72;100.00;96854.75;4927021;29;20082;-57
2024/01/29 07:43:07;;;;;;;20.83;11.35;;;1.80;66.70;;;-3.69;100.00;96858.84;4933326;28;20034;-55
2024/01/29 07:45:34;;;;;;;19.13;10.30;;;1.80;66.70;;;-3.63;100.00;96855.66;4924236;29;20117;-57
2024/01/29 07:48:00;;;;;;;17.27;10.02;;;1.90;66.70;;;-3.59;100.00;96864.81;4924906;29;20070;-58
2024/01/29 07:50:26;;;;;;;16.25;8.98;;;1.90;66.70;;;-3.57;100.00;96860.28;4923786;29;20565;-59
2024/01/29 07:52:52;;;;;;;16.00;9.30;;;1.90;66.70;;;-3.52;100.00;96863.25;4947183;28;20125;-59
2024/01/29 07:55:19;;;;;;;16.17;10.18;;;1.90;66.60;;;-3.54;100.00;96860.81;4927259;28;20050;-59
2024/01/29 07:57:45;;;;;;;18.67;9.63;;;2.00;66.70;;;-3.52;100.00;96866.69;4919259;28;20027;-57
2024/01/29 08:00:13;;;;;;;16.42;9.82;;;2.00;66.60;;;-3.47;100.00;96875.88;4922542;29;20490;-58
2024/01/29 08:02:38;;;;;;;15.57;9.73;;;2.10;66.70;;;-3.40;100.00;96866.50;4924246;29;20042;-56
2024/01/29 08:05:05;;;;;;;19.52;9.27;;;2.10;66.70;;;-3.40;100.00;96864.72;4925471;29;20035;-59
2024/01/29 08:07:31;;;;;;;16.90;9.50;;;2.20;66.70;;;-3.34;100.00;96866.72;4924923;29;20054;-57
2024/01/29 08:10:00;;;;;;;16.33;10.13;;;2.30;66.70;;;-3.26;100.00;96868.59;4932262;28;20043;-57
2024/01/29 08:12:27;;;;;;;16.77;9.63;;;2.40;66.70;;;-3.20;100.00;96867.19;4933992;28;20066;-56
2024/01/29 08:14:53;;;;;;;16.40;9.93;;;2.50;66.70;;;-3.16;100.00;96874.59;4930473;28;20132;-59
2024/01/29 08:17:19;;;;;;;16.05;8.98;;;2.50;66.70;;;-3.10;100.00;96866.19;4927494;29;20031;-59
2024/01/29 08:19:45;;;;;;;20.05;9.70;;;2.60;66.60;;;-3.02;100.00;96866.25;4920849;29;20058;-58
2024/01/29 08:22:11;;;;;;;24.05;10.90;;;2.70;66.70;;;-2.93;100.00;96869.75;4924626;29;20146;-54
2024/01/29 08:24:38;;;;;;;17.75;10.65;;;2.80;66.70;;;-2.81;100.00;96868.56;4927673;29;20081;-57
2024/01/29 08:27:04;;;;;;;17.40;9.68;;;3.00;66.70;;;-2.68;100.00;96868.19;4919251;29;20030;-55
2024/01/29 08:29:30;;;;;;;16.15;10.18;;;3.10;66.70;;;-2.58;100.00;96871.53;4924491;29;20482;-55
2024/01/29 08:31:56;;;;;;;20.17;10.70;;;3.30;66.70;;;-2.46;100.00;96868.69;4918174;29;20046;-55
2024/01/29 08:34:23;;;;;;;19.45;11.02;;;3.50;66.70;;;-2.28;100.00;96869.47;4925328;29;20074;-59
2024/01/29 08:36:49;;;;;;;19.27;10.82;;;3.70;66.70;;;-2.14;100.00;96868.91;4925286;29;20043;-56
2024/01/29 08:39:17;;;;;;;18.05;10.88;;;3.80;66.60;;;-2.01;100.00;96872.91;4928445;29;20038;-59
2024/01/29 08:41:43;;;;;;;19.45;10.75;;;3.90;66.60;;;-1.95;100.00;96867.88;4923146;29;20069;-59
2024/01/29 08:44:10;;;;;;;21.48;11.52;;;4.00;66.50;;;-1.89;100.00;96869.88;4931690;28;20454;-58
2024/01/29 08:46:36;;;;;;;19.60;10.50;;;4.10;66.40;;;-1.84;100.00;96869.41;4921201;29;20457;-59
2024/01/29 08:49:03;;;;;;;21.00;10.80;;;4.30;66.40;;;-1.69;100.00;96870.47;4918092;29;20130;-59
2024/01/29 08:51:29;;;;;;;20.35;10.57;;;4.40;66.30;;;-1.60;100.00;96866.06;4926003;29;20043;-57
2024/01/29 08:53:56;;;;;;;21.00;11.30;;;4.50;66.20;;;-1.49;100.00;96871.03;4918104;29;20031;-59
2024/01/29 08:56:22;;;;;;;19.45;11.05;;;4.70;66.20;;;-1.30;100.00;96877.00;4923565;29;20398;-58
2024/01/29 08:58:48;;;;;;;21.77;11.18;;;4.90;66.10;;;-1.11;100.00;96871.47;4918339;29;20030;-56
2024/01/29 09:01:14;;;;;;;17.25;10.35;;;5.10;66.10;;;-0.96;100.00;96872.50;4921708;29;20038;-57
2024/01/29 09:03:39;;;;;;;20.58;10.80;;;5.40;66.00;;;-0.82;100.00;96878.06;4923390;29;20031;-58
2024/01/29 09:06:05;;;;;;;20.50;10.50;;;5.60;65.90;;;-0.70;100.00;96874.16;4919068;29;20054;-58
2024/01/29 09:08:31;;;;;;;17.80;10.38;;;5.90;65.70;;;-0.53;100.00;96875.81;4921764;29;20816;-54
2024/01/29 09:10:57;;;;;;;18.15;11.05;;;6.10;65.50;;;-0.34;100.00;96877.28;4923788;28;20041;-53
2024/01/29 09:13:23;;;;;;;16.05;10.02;;;6.40;65.30;;;-0.08;100.00;96865.81;4926645;29;20391;-54
2024/01/29 09:15:49;;;;;;;19.00;11.38;;;6.80;65.20;;;0.15;100.00;96873.78;4923534;29;20041;-57
2024/01/29 09:18:15;;;;;;;18.00;10.70;;;7.10;65.20;;;0.36;100.00;96879.28;4922972;29;20039;-54
2024/01/29 09:20:41;;;;;;;20.13;11.90;;;7.40;65.20;;;0.51;100.00;96876.78;4918442;29;20031;-60
2024/01/29 09:23:07;;;;;;;23.08;12.25;;;7.70;65.10;;;0.68;100.00;96875.72;4919140;29;20172;-60
2024/01/29 09:25:33;;;;;;;16.73;11.30;;;7.90;65.00;;;0.77;100.00;96878.31;4926441;29;20085;-58
2024/01/29 09:27:59;;;;;;;17.95;11.70;;;8.20;64.80;;;0.85;100.00;96876.47;4916002;29;20027;-56
2024/01/29 09:30:25;;;;;;;15.27;10.30;;;8.40;64.60;;;1.01;100.00;96877.38;4926114;29;20023;-58
2024/01/29 09:32:50;;;;;;;16.52;11.05;;;8.60;64.40;;;1.12;100.00;96885.66;4918532;29;20029;-59
2024/01/29 09:35:16;;;;;;;17.20;11.18;;;8.90;64.30;;;1.31;100.00;96883.56;4922583;29;20045;-59
2024/01/29 09:37:42;;;;;;;17.77;11.18;;;9.10;64.20;;;1.53;100.00;96885.38;4926283;29;20042;-56
2024/01/29 09:40:15;;;;;;;19.45;11.63;;;9.50;64.10;;;1.72;100.00;96891.16;4921610;29;20035;-59
2024/01/29 09:42:50;;;;;;;17.13;10.45;;;9.80;63.90;;;1.76;100.00;96895.09;4929473;29;20077;-57
2024/01/29 09:45:23;;;;;;;15.07;10.15;;;10.00;63.50;;;1.88;100.00;96892.81;4922308;29;20118;-59
2024/01/29 09:47:54;;;;;;;17.30;10.70;;;10.20;63.00;;;1.92;100.00;96894.13;4923801;29;20027;-59
2024/01/29 09:50:24;;;;;;;19.67;11.73;;;10.40;62.70;;;2.15;100.00;96902.75;4918588;29;20038;-59
2024/01/29 09:52:55;;;;;;;19.27;12.63;;;10.60;62.50;;;2.35;100.00;96899.59;4919434;29;20063;-60
2024/01/29 09:55:26;;;;;;;16.15;12.00;;;10.80;62.30;;;2.58;100.00;96899.53;4929197;29;20430;-61
2024/01/29 09:57:52;;;;;;;16.52;11.48;;;11.10;62.40;;;2.76;100.00;96898.16;4921524;29;20036;-61
2024/01/29 10:00:19;;;;;;;15.93;10.38;;;11.30;62.40;;;2.95;100.00;96898.59;4923175;29;20119;-62
2024/01/29 10:02:53;;;;;;;15.32;10.43;;;11.60;62.40;;;3.14;100.00;96898.00;4925444;29;20089;-59
2024/01/29 10:05:19;;;;;;;13.40;9.63;;;11.80;62.00;;;3.39;100.00;96898.47;4921008;29;20094;-60